createdAt,value
2018-09-02T00:00:50.404Z,17.04
2018-09-02T00:01:50.239Z,17.05
2018-09-02T00:02:50.502Z,17.02
2018-09-02T00:03:50.327Z,17.01
2018-09-02T00:04:50.442Z,16.99
2018-09-02T00:05:50.304Z,16.97
2018-09-02T00:06:50.271Z,16.92
2018-09-02T00:07:50.233Z,16.94
2018-09-02T00:08:50.238Z,16.94
2018-09-02T00:09:50.249Z,16.97
2018-09-02T00:10:50.265Z,16.97
2018-09-02T00:11:50.566Z,16.95
2018-09-02T00:12:50.405Z,16.98
2018-09-02T00:13:50.481Z,16.97
2018-09-02T00:14:50.276Z,16.95
2018-09-02T00:15:50.238Z,16.92
2018-09-02T00:16:50.236Z,16.94
2018-09-02T00:17:50.284Z,16.9
2018-09-02T00:18:50.466Z,16.88
2018-09-02T00:19:50.225Z,16.9
2018-09-02T00:20:50.265Z,16.9
2018-09-02T00:21:50.430Z,16.88
2018-09-02T00:22:50.258Z,16.88
2018-09-02T00:23:50.223Z,16.88
2018-09-02T00:24:50.283Z,16.88
2018-09-02T00:25:50.248Z,16.86
2018-09-02T00:26:50.245Z,16.86
2018-09-02T00:27:50.365Z,16.83
2018-09-02T00:28:50.419Z,16.84
2018-09-02T00:29:50.221Z,16.84
2018-09-02T00:30:50.244Z,16.8
2018-09-02T00:31:50.252Z,16.81
2018-09-02T00:32:50.525Z,16.78
2018-09-02T00:33:50.625Z,16.78
2018-09-02T00:34:50.376Z,16.74
2018-09-02T00:35:50.250Z,16.68
2018-09-02T00:36:50.270Z,16.7
2018-09-02T00:37:50.262Z,16.67
2018-09-02T00:38:50.319Z,16.64
2018-09-02T00:39:50.247Z,16.62
2018-09-02T00:40:50.276Z,16.59
2018-09-02T00:41:50.298Z,16.59
2018-09-02T00:42:50.261Z,16.62
2018-09-02T00:43:50.379Z,16.59
2018-09-02T00:44:50.305Z,16.6
2018-09-02T00:45:50.278Z,16.59
2018-09-02T00:46:50.289Z,16.56
2018-09-02T00:47:50.330Z,16.59
2018-09-02T00:48:50.385Z,16.6
2018-09-02T00:49:50.255Z,16.59
2018-09-02T00:50:50.288Z,16.63
2018-09-02T00:51:50.550Z,16.62
2018-09-02T00:52:50.284Z,16.6
2018-09-02T00:53:50.323Z,16.64
2018-09-02T00:54:50.298Z,16.63
2018-09-02T00:55:50.302Z,16.64
2018-09-02T00:56:50.434Z,16.64
2018-09-02T00:57:50.339Z,16.64
2018-09-02T00:58:50.464Z,16.66
2018-09-02T00:59:50.277Z,16.66
2018-09-02T01:00:50.285Z,16.64
2018-09-02T01:01:50.297Z,16.66
2018-09-02T01:02:50.396Z,16.66
2018-09-02T01:03:50.301Z,16.68
2018-09-02T01:04:50.389Z,16.66
2018-09-02T01:05:50.289Z,16.68
2018-09-02T01:06:50.317Z,16.71
2018-09-02T01:07:50.331Z,16.7
2018-09-02T01:08:50.314Z,16.74
2018-09-02T01:09:50.292Z,16.74
2018-09-02T01:10:50.421Z,16.71
2018-09-02T01:11:50.748Z,16.73
2018-09-02T01:12:50.647Z,16.75
2018-09-02T01:13:50.411Z,16.75
2018-09-02T01:14:50.714Z,16.75
2018-09-02T01:15:50.329Z,16.75
2018-09-02T01:16:50.364Z,16.75
2018-09-02T01:17:50.361Z,16.77
2018-09-02T01:18:50.484Z,16.77
2018-09-02T01:19:50.369Z,16.75
2018-09-02T01:20:50.373Z,16.77
2018-09-02T01:21:50.528Z,16.78
2018-09-02T01:22:50.489Z,16.78
2018-09-02T01:23:50.295Z,16.78
2018-09-02T01:24:50.501Z,16.8
2018-09-02T01:25:50.342Z,16.8
2018-09-02T01:26:50.306Z,16.81
2018-09-02T01:27:50.324Z,16.81
2018-09-02T01:28:50.324Z,16.8
2018-09-02T01:29:50.340Z,16.78
2018-09-02T01:30:50.341Z,16.78
2018-09-02T01:31:50.447Z,16.8
2018-09-02T01:32:50.361Z,16.8
2018-09-02T01:33:50.336Z,16.8
2018-09-02T01:34:50.569Z,16.8
2018-09-02T01:35:50.415Z,16.8
2018-09-02T01:36:50.385Z,16.8
2018-09-02T01:37:50.379Z,16.74
2018-09-02T01:38:50.364Z,16.77
2018-09-02T01:39:50.372Z,16.78
2018-09-02T01:40:50.344Z,16.81
2018-09-02T01:41:50.310Z,16.8
2018-09-02T01:42:50.342Z,16.78
2018-09-02T01:43:50.319Z,16.8
2018-09-02T01:44:50.331Z,16.77
2018-09-02T01:45:50.367Z,16.78
2018-09-02T01:46:50.348Z,16.8
2018-09-02T01:47:50.313Z,16.78
2018-09-02T01:48:50.355Z,16.77
2018-09-02T01:49:50.336Z,16.77
2018-09-02T01:50:50.406Z,16.77
2018-09-02T01:51:50.385Z,16.8
2018-09-02T01:52:50.332Z,16.77
2018-09-02T01:53:50.357Z,16.78
2018-09-02T01:54:50.365Z,16.8
2018-09-02T01:55:50.351Z,16.81
2018-09-02T01:56:50.337Z,16.8
2018-09-02T01:57:50.354Z,16.83
2018-09-02T01:58:50.332Z,16.8
2018-09-02T01:59:50.473Z,16.81
2018-09-02T02:00:50.357Z,16.83
2018-09-02T02:01:50.380Z,16.8
2018-09-02T02:02:50.367Z,16.83
2018-09-02T02:03:50.405Z,16.81
2018-09-02T02:04:50.400Z,16.8
2018-09-02T02:05:50.349Z,16.81
2018-09-02T02:06:50.473Z,16.78
2018-09-02T02:07:50.452Z,16.77
2018-09-02T02:08:50.646Z,16.77
2018-09-02T02:09:50.465Z,16.77
2018-09-02T02:10:50.611Z,16.74
2018-09-02T02:11:50.530Z,16.7
2018-09-02T02:12:50.510Z,16.68
2018-09-02T02:13:50.681Z,16.7
2018-09-02T02:14:50.432Z,16.7
2018-09-02T02:15:50.377Z,16.7
2018-09-02T02:16:50.390Z,16.7
2018-09-02T02:17:50.362Z,16.73
2018-09-02T02:18:50.359Z,16.74
2018-09-02T02:19:50.386Z,16.75
2018-09-02T02:20:50.422Z,16.75
2018-09-02T02:21:50.403Z,16.77
2018-09-02T02:22:50.397Z,16.78
2018-09-02T02:23:50.479Z,16.8
2018-09-02T02:24:50.657Z,16.81
2018-09-02T02:25:50.372Z,16.8
2018-09-02T02:26:50.388Z,16.81
2018-09-02T02:27:50.377Z,16.78
2018-09-02T02:28:50.420Z,16.75
2018-09-02T02:29:50.383Z,16.8
2018-09-02T02:30:50.550Z,16.8
2018-09-02T02:31:50.428Z,16.81
2018-09-02T02:32:50.404Z,16.83
2018-09-02T02:33:50.484Z,16.84
2018-09-02T02:34:50.404Z,16.81
2018-09-02T02:35:50.464Z,16.84
2018-09-02T02:36:50.455Z,16.84
2018-09-02T02:37:50.554Z,16.86
2018-09-02T02:38:50.368Z,16.81
2018-09-02T02:39:50.554Z,16.83
2018-09-02T02:40:50.501Z,16.77
2018-09-02T02:41:50.412Z,16.78
2018-09-02T02:42:50.419Z,16.8
2018-09-02T02:43:50.402Z,16.81
2018-09-02T02:44:50.437Z,16.78
2018-09-02T02:45:50.415Z,16.8
2018-09-02T02:46:50.421Z,16.75
2018-09-02T02:47:50.416Z,16.75
2018-09-02T02:48:50.640Z,16.77
2018-09-02T02:49:50.439Z,16.77
2018-09-02T02:50:50.400Z,16.78
2018-09-02T02:51:50.430Z,16.77
2018-09-02T02:52:50.415Z,16.78
2018-09-02T02:53:50.443Z,16.77
2018-09-02T02:54:50.446Z,16.8
2018-09-02T02:55:50.452Z,16.78
2018-09-02T02:56:50.459Z,16.77
2018-09-02T02:57:50.425Z,16.75
2018-09-02T02:58:50.416Z,16.77
2018-09-02T02:59:50.406Z,16.78
2018-09-02T03:00:50.597Z,16.78
2018-09-02T03:01:50.476Z,16.78
2018-09-02T03:02:50.457Z,16.77
2018-09-02T03:03:50.567Z,16.75
2018-09-02T03:04:50.467Z,16.74
2018-09-02T03:05:50.611Z,16.7
2018-09-02T03:06:50.662Z,16.7
2018-09-02T03:07:50.432Z,16.66
2018-09-02T03:08:50.894Z,16.64
2018-09-02T03:09:50.545Z,16.68
2018-09-02T03:10:50.940Z,16.67
2018-09-02T03:11:50.624Z,16.63
2018-09-02T03:12:50.433Z,16.62
2018-09-02T03:13:50.455Z,16.6
2018-09-02T03:14:50.530Z,16.53
2018-09-02T03:15:50.442Z,16.53
2018-09-02T03:16:50.718Z,16.53
2018-09-02T03:17:50.432Z,16.54
2018-09-02T03:18:50.592Z,16.56
2018-09-02T03:19:50.436Z,16.57
2018-09-02T03:20:50.528Z,16.54
2018-09-02T03:21:50.432Z,16.57
2018-09-02T03:22:50.463Z,16.56
2018-09-02T03:23:50.528Z,16.57
2018-09-02T03:24:50.451Z,16.5
2018-09-02T03:25:50.442Z,16.53
2018-09-02T03:26:50.508Z,16.5
2018-09-02T03:27:50.576Z,16.53
2018-09-02T03:28:50.440Z,16.45
2018-09-02T03:29:50.506Z,16.42
2018-09-02T03:30:50.449Z,16.43
2018-09-02T03:31:50.444Z,16.39
2018-09-02T03:32:50.459Z,16.42
2018-09-02T03:33:50.438Z,16.42
2018-09-02T03:34:50.453Z,16.36
2018-09-02T03:35:50.823Z,16.35
2018-09-02T03:36:50.446Z,16.37
2018-09-02T03:37:50.485Z,16.28
2018-09-02T03:38:50.444Z,16.24
2018-09-02T03:39:50.523Z,16.19
2018-09-02T03:40:50.475Z,16.15
2018-09-02T03:41:50.455Z,16.16
2018-09-02T03:42:50.460Z,16.19
2018-09-02T03:43:50.460Z,16.11
2018-09-02T03:44:50.475Z,16.11
2018-09-02T03:45:50.538Z,16.04
2018-09-02T03:46:50.477Z,16.08
2018-09-02T03:47:50.569Z,15.99
2018-09-02T03:48:50.590Z,15.94
2018-09-02T03:49:50.452Z,15.94
2018-09-02T03:50:50.492Z,15.99
2018-09-02T03:51:50.483Z,15.95
2018-09-02T03:52:50.460Z,15.99
2018-09-02T03:53:50.503Z,15.95
2018-09-02T03:54:50.503Z,15.91
2018-09-02T03:55:50.543Z,15.9
2018-09-02T03:56:50.539Z,15.9
2018-09-02T03:57:50.473Z,15.91
2018-09-02T03:58:50.608Z,15.85
2018-09-02T03:59:50.561Z,15.88
2018-09-02T04:00:50.511Z,15.87
2018-09-02T04:01:50.649Z,15.88
2018-09-02T04:02:50.568Z,15.88
2018-09-02T04:03:50.521Z,15.84
2018-09-02T04:04:50.744Z,15.91
2018-09-02T04:05:50.514Z,15.95
2018-09-02T04:06:50.551Z,15.95
2018-09-02T04:07:50.621Z,15.92
2018-09-02T04:08:50.532Z,15.92
2018-09-02T04:09:50.518Z,15.91
2018-09-02T04:10:50.602Z,15.97
2018-09-02T04:11:50.493Z,16.01
2018-09-02T04:12:50.553Z,16.02
2018-09-02T04:13:50.553Z,16.07
2018-09-02T04:14:50.541Z,16.07
2018-09-02T04:15:50.576Z,16.07
2018-09-02T04:16:50.681Z,16.07
2018-09-02T04:17:50.513Z,16.08
2018-09-02T04:18:50.506Z,16.04
2018-09-02T04:19:50.687Z,16.05
2018-09-02T04:20:50.693Z,16.07
2018-09-02T04:21:50.518Z,16.05
2018-09-02T04:22:50.501Z,16.08
2018-09-02T04:23:50.644Z,16.12
2018-09-02T04:24:50.504Z,16.11
2018-09-02T04:25:50.767Z,16.02
2018-09-02T04:26:50.502Z,16.02
2018-09-02T04:27:50.500Z,16.05
2018-09-02T04:28:50.514Z,16.01
2018-09-02T04:29:50.502Z,16.04
2018-09-02T04:30:50.572Z,16.04
2018-09-02T04:31:50.518Z,16.08
2018-09-02T04:32:50.574Z,16.12
2018-09-02T04:33:50.823Z,16.12
2018-09-02T04:34:50.528Z,16.04
2018-09-02T04:35:50.625Z,16.01
2018-09-02T04:36:51.054Z,16.04
2018-09-02T04:37:50.652Z,16.01
2018-09-02T04:38:50.544Z,16.05
2018-09-02T04:39:50.570Z,16.04
2018-09-02T04:40:50.595Z,16.02
2018-09-02T04:41:50.634Z,15.99
2018-09-02T04:42:50.522Z,16.05
2018-09-02T04:43:50.565Z,15.98
2018-09-02T04:44:50.572Z,15.95
2018-09-02T04:45:50.536Z,15.9
2018-09-02T04:46:50.538Z,15.91
2018-09-02T04:47:50.573Z,15.97
2018-09-02T04:48:50.840Z,15.98
2018-09-02T04:49:50.588Z,16.02
2018-09-02T04:50:50.572Z,15.94
2018-09-02T04:51:50.551Z,15.98
2018-09-02T04:52:50.561Z,15.97
2018-09-02T04:53:50.583Z,15.97
2018-09-02T04:54:50.571Z,15.95
2018-09-02T04:55:50.541Z,15.97
2018-09-02T04:56:50.536Z,15.99
2018-09-02T04:57:50.550Z,15.98
2018-09-02T04:58:50.534Z,15.91
2018-09-02T04:59:50.534Z,15.95
2018-09-02T05:00:50.613Z,15.94
2018-09-02T05:01:50.539Z,15.98
2018-09-02T05:02:50.548Z,15.97
2018-09-02T05:03:50.559Z,15.98
2018-09-02T05:04:51.052Z,15.99
2018-09-02T05:05:50.555Z,16.02
2018-09-02T05:06:50.621Z,16.05
2018-09-02T05:07:50.843Z,16.07
2018-09-02T05:08:50.608Z,16.11
2018-09-02T05:09:50.573Z,16.14
2018-09-02T05:10:50.562Z,16.14
2018-09-02T05:11:50.669Z,16.16
2018-09-02T05:12:50.636Z,16.18
2018-09-02T05:13:50.643Z,16.19
2018-09-02T05:14:50.537Z,16.18
2018-09-02T05:15:50.559Z,16.21
2018-09-02T05:16:50.554Z,16.24
2018-09-02T05:17:51.113Z,16.22
2018-09-02T05:18:50.558Z,16.26
2018-09-02T05:19:50.553Z,16.22
2018-09-02T05:20:50.567Z,16.16
2018-09-02T05:21:50.629Z,16.12
2018-09-02T05:22:50.613Z,16.12
2018-09-02T05:23:51.076Z,16.14
2018-09-02T05:24:50.605Z,16.19
2018-09-02T05:25:50.574Z,16.22
2018-09-02T05:26:50.602Z,16.24
2018-09-02T05:27:50.615Z,16.22
2018-09-02T05:28:50.623Z,16.24
2018-09-02T05:29:50.582Z,16.28
2018-09-02T05:30:50.704Z,16.28
2018-09-02T05:31:50.602Z,16.31
2018-09-02T05:32:50.597Z,16.33
2018-09-02T05:33:50.587Z,16.32
2018-09-02T05:34:51.008Z,16.33
2018-09-02T05:35:50.684Z,16.35
2018-09-02T05:36:50.880Z,16.32
2018-09-02T05:37:50.617Z,16.29
2018-09-02T05:38:50.647Z,16.32
2018-09-02T05:39:50.600Z,16.33
2018-09-02T05:40:50.615Z,16.24
2018-09-02T05:41:51.419Z,16.26
2018-09-02T05:42:50.766Z,16.22
2018-09-02T05:43:50.794Z,16.25
2018-09-02T05:44:50.591Z,16.29
2018-09-02T05:45:50.783Z,16.33
2018-09-02T05:46:50.668Z,16.35
2018-09-02T05:47:50.730Z,16.35
2018-09-02T05:48:50.609Z,16.39
2018-09-02T05:49:50.734Z,16.39
2018-09-02T05:50:50.636Z,16.43
2018-09-02T05:51:50.575Z,16.45
2018-09-02T05:52:50.699Z,16.45
2018-09-02T05:53:50.614Z,16.46
2018-09-02T05:54:50.592Z,16.47
2018-09-02T05:55:50.711Z,16.47
2018-09-02T05:56:50.678Z,16.43
2018-09-02T05:57:50.655Z,16.42
2018-09-02T05:58:50.623Z,16.45
2018-09-02T05:59:50.626Z,16.43
2018-09-02T06:00:50.784Z,16.39
2018-09-02T06:01:50.723Z,16.4
2018-09-02T06:02:50.986Z,16.4
2018-09-02T06:03:50.686Z,16.42
2018-09-02T06:04:50.612Z,16.37
2018-09-02T06:05:50.631Z,16.37
2018-09-02T06:06:50.608Z,16.43
2018-09-02T06:07:50.608Z,16.4
2018-09-02T06:08:50.598Z,16.37
2018-09-02T06:09:50.616Z,16.37
2018-09-02T06:10:50.624Z,16.4
2018-09-02T06:11:50.626Z,16.43
2018-09-02T06:12:50.614Z,16.4
2018-09-02T06:13:50.617Z,16.4
2018-09-02T06:14:50.611Z,16.45
2018-09-02T06:15:50.645Z,16.46
2018-09-02T06:16:50.611Z,16.43
2018-09-02T06:17:50.627Z,16.43
2018-09-02T06:18:50.644Z,16.4
2018-09-02T06:19:50.641Z,16.36
2018-09-02T06:20:50.627Z,16.39
2018-09-02T06:21:50.665Z,16.4
2018-09-02T06:22:50.633Z,16.43
2018-09-02T06:23:50.704Z,16.45
2018-09-02T06:24:50.687Z,16.46
2018-09-02T06:25:50.630Z,16.49
2018-09-02T06:26:50.772Z,16.47
2018-09-02T06:27:50.765Z,16.47
2018-09-02T06:28:50.641Z,16.5
2018-09-02T06:29:50.743Z,16.47
2018-09-02T06:30:50.822Z,16.5
2018-09-02T06:31:50.640Z,16.42
2018-09-02T06:32:50.974Z,16.45
2018-09-02T06:33:50.697Z,16.46
2018-09-02T06:34:50.658Z,16.43
2018-09-02T06:35:50.770Z,16.46
2018-09-02T06:36:50.760Z,16.49
2018-09-02T06:37:50.698Z,16.47
2018-09-02T06:38:50.682Z,16.42
2018-09-02T06:39:50.719Z,16.37
2018-09-02T06:40:51.092Z,16.4
2018-09-02T06:41:50.647Z,16.35
2018-09-02T06:42:50.651Z,16.37
2018-09-02T06:43:50.760Z,16.39
2018-09-02T06:44:50.753Z,16.37
2018-09-02T06:45:51.293Z,16.36
2018-09-02T06:46:50.854Z,16.36
2018-09-02T06:47:50.671Z,16.35
2018-09-02T06:48:50.990Z,16.37
2018-09-02T06:49:50.843Z,16.37
2018-09-02T06:50:50.693Z,16.37
2018-09-02T06:51:50.812Z,16.37
2018-09-02T06:52:50.780Z,16.43
2018-09-02T06:53:50.765Z,16.42
2018-09-02T06:54:50.883Z,16.43
2018-09-02T06:55:50.658Z,16.4
2018-09-02T06:56:51.097Z,16.42
2018-09-02T06:57:50.715Z,16.47
2018-09-02T06:58:50.739Z,16.46
2018-09-02T06:59:50.803Z,16.47
2018-09-02T07:00:51.033Z,16.49
2018-09-02T07:01:50.659Z,16.46
2018-09-02T07:02:50.719Z,16.47
2018-09-02T07:03:50.682Z,16.49
2018-09-02T07:04:50.733Z,16.5
2018-09-02T07:05:50.696Z,16.5
2018-09-02T07:06:50.838Z,16.49
2018-09-02T07:07:50.734Z,16.47
2018-09-02T07:08:50.689Z,16.5
2018-09-02T07:09:50.668Z,16.52
2018-09-02T07:10:50.973Z,16.57
2018-09-02T07:11:50.816Z,16.6
2018-09-02T07:12:50.746Z,16.57
2018-09-02T07:13:50.735Z,16.62
2018-09-02T07:14:50.758Z,16.63
2018-09-02T07:15:50.809Z,16.64
2018-09-02T07:16:50.739Z,16.67
2018-09-02T07:17:51.133Z,16.68
2018-09-02T07:18:50.692Z,16.71
2018-09-02T07:19:50.735Z,16.75
2018-09-02T07:20:51.049Z,16.75
2018-09-02T07:21:50.862Z,16.78
2018-09-02T07:22:50.675Z,16.81
2018-09-02T07:23:50.737Z,16.86
2018-09-02T07:24:51.078Z,16.78
2018-09-02T07:25:50.687Z,16.8
2018-09-02T07:26:50.707Z,16.83
2018-09-02T07:27:50.701Z,16.84
2018-09-02T07:28:50.722Z,16.87
2018-09-02T07:29:50.715Z,16.9
2018-09-02T07:30:50.710Z,16.92
2018-09-02T07:31:50.729Z,16.97
2018-09-02T07:32:50.709Z,16.98
2018-09-02T07:33:50.729Z,17.01
2018-09-02T07:34:50.701Z,16.95
2018-09-02T07:35:50.702Z,16.98
2018-09-02T07:36:50.702Z,17.04
2018-09-02T07:37:50.685Z,17.09
2018-09-02T07:38:50.712Z,17.11
2018-09-02T07:39:50.692Z,17.18
2018-09-02T07:40:50.729Z,17.22
2018-09-02T07:41:50.694Z,17.25
2018-09-02T07:42:50.789Z,17.26
2018-09-02T07:43:51.258Z,17.29
2018-09-02T07:44:51.017Z,17.32
2018-09-02T07:45:50.836Z,17.36
2018-09-02T07:46:50.869Z,17.39
2018-09-02T07:47:50.971Z,17.47
2018-09-02T07:48:50.752Z,17.52
2018-09-02T07:49:50.750Z,17.54
2018-09-02T07:50:50.735Z,17.6
2018-09-02T07:51:50.690Z,17.67
2018-09-02T07:52:50.839Z,17.71
2018-09-02T07:53:51.031Z,17.69
2018-09-02T07:54:50.734Z,17.71
2018-09-02T07:55:51.098Z,17.73
2018-09-02T07:56:50.927Z,17.77
2018-09-02T07:57:50.747Z,17.74
2018-09-02T07:58:50.693Z,17.76
2018-09-02T07:59:51.125Z,17.77
2018-09-02T08:00:50.889Z,17.8
2018-09-02T08:01:51.024Z,17.78
2018-09-02T08:02:51.397Z,17.8
2018-09-02T08:03:50.707Z,17.81
2018-09-02T08:04:50.727Z,17.84
2018-09-02T08:05:50.762Z,17.81
2018-09-02T08:06:50.766Z,17.81
2018-09-02T08:07:50.696Z,17.78
2018-09-02T08:08:50.693Z,17.82
2018-09-02T08:09:51.298Z,17.85
2018-09-02T08:10:50.758Z,17.88
2018-09-02T08:11:50.801Z,17.88
2018-09-02T08:12:51.729Z,17.89
2018-09-02T08:13:50.695Z,17.84
2018-09-02T08:14:50.702Z,17.85
2018-09-02T08:15:51.122Z,17.85
2018-09-02T08:16:50.724Z,17.88
2018-09-02T08:17:50.786Z,17.91
2018-09-02T08:18:50.933Z,17.88
2018-09-02T08:19:50.819Z,17.88
2018-09-02T08:20:50.681Z,17.89
2018-09-02T08:21:50.786Z,17.89
2018-09-02T08:22:50.671Z,17.91
2018-09-02T08:23:51.069Z,17.94
2018-09-02T08:24:50.785Z,17.97
2018-09-02T08:25:51.282Z,17.94
2018-09-02T08:26:50.698Z,17.95
2018-09-02T08:27:50.779Z,17.98
2018-09-02T08:28:50.770Z,17.98
2018-09-02T08:29:50.813Z,17.95
2018-09-02T08:30:50.818Z,17.98
2018-09-02T08:31:50.732Z,17.99
2018-09-02T08:32:51.372Z,17.98
2018-09-02T08:33:50.689Z,18.01
2018-09-02T08:34:50.947Z,18.01
2018-09-02T08:35:50.711Z,18.01
2018-09-02T08:36:51.078Z,18.04
2018-09-02T08:37:50.775Z,18.04
2018-09-02T08:38:51.214Z,18.05
2018-09-02T08:39:50.703Z,18.08
2018-09-02T08:40:50.678Z,18.08
2018-09-02T08:41:50.782Z,18.05
2018-09-02T08:42:50.670Z,18.08
2018-09-02T08:43:50.861Z,18.09
2018-09-02T08:44:50.734Z,18.09
2018-09-02T08:45:50.668Z,18.09
2018-09-02T08:46:51.030Z,18.08
2018-09-02T08:47:50.756Z,18.11
2018-09-02T08:48:50.659Z,18.13
2018-09-02T08:49:50.797Z,18.12
2018-09-02T08:50:50.681Z,18.16
2018-09-02T08:51:50.758Z,18.19
2018-09-02T08:52:50.651Z,18.23
2018-09-02T08:53:50.694Z,18.26
2018-09-02T08:54:50.748Z,18.26
2018-09-02T08:55:50.764Z,18.26
2018-09-02T08:56:50.682Z,18.23
2018-09-02T08:57:50.671Z,18.29
2018-09-02T08:58:50.653Z,18.32
2018-09-02T08:59:50.661Z,18.32
2018-09-02T09:00:51.012Z,18.35
2018-09-02T09:01:50.899Z,18.37
2018-09-02T09:02:50.786Z,18.37
2018-09-02T09:03:50.648Z,18.39
2018-09-02T09:04:50.709Z,18.3
2018-09-02T09:05:50.752Z,18.36
2018-09-02T09:06:50.780Z,18.42
2018-09-02T09:07:51.872Z,18.42
2018-09-02T09:08:51.679Z,18.47
2018-09-02T09:09:51.011Z,18.44
2018-09-02T09:10:50.706Z,18.42
2018-09-02T09:11:50.658Z,18.43
2018-09-02T09:12:50.656Z,18.42
2018-09-02T09:13:50.799Z,18.43
2018-09-02T09:14:50.796Z,18.44
2018-09-02T09:15:50.800Z,18.4
2018-09-02T09:16:51.441Z,18.36
2018-09-02T09:17:50.667Z,18.3
2018-09-02T09:18:50.775Z,18.36
2018-09-02T09:19:52.705Z,18.35
2018-09-02T09:20:51.041Z,18.32
2018-09-02T09:21:51.064Z,18.3
2018-09-02T09:22:50.685Z,18.32
2018-09-02T09:23:51.097Z,18.32
2018-09-02T09:24:50.675Z,18.36
2018-09-02T09:25:50.741Z,18.35
2018-09-02T09:26:50.705Z,18.39
2018-09-02T09:27:50.684Z,18.4
2018-09-02T09:28:50.730Z,18.42
2018-09-02T09:29:51.137Z,18.39
2018-09-02T09:30:50.671Z,18.37
2018-09-02T09:31:51.772Z,18.3
2018-09-02T09:32:50.658Z,18.3
2018-09-02T09:33:51.145Z,18.36
2018-09-02T09:34:50.946Z,18.36
2018-09-02T09:35:51.011Z,18.4
2018-09-02T09:36:50.645Z,18.42
2018-09-02T09:37:51.168Z,18.43
2018-09-02T09:38:50.711Z,18.46
2018-09-02T09:39:51.772Z,18.46
2018-09-02T09:40:51.636Z,18.47
2018-09-02T09:41:51.107Z,18.46
2018-09-02T09:42:51.188Z,18.42
2018-09-02T09:43:51.016Z,18.46
2018-09-02T09:44:51.388Z,18.54
2018-09-02T09:45:50.989Z,18.54
2018-09-02T09:46:50.797Z,18.52
2018-09-02T09:47:50.823Z,18.5
2018-09-02T09:48:50.681Z,18.42
2018-09-02T09:49:50.715Z,18.44
2018-09-02T09:50:50.781Z,18.43
2018-09-02T09:51:50.682Z,18.3
2018-09-02T09:52:50.717Z,18.35
2018-09-02T09:53:50.684Z,18.23
2018-09-02T09:54:50.668Z,18.29
2018-09-02T09:55:51.763Z,18.35
2018-09-02T09:56:50.670Z,18.36
2018-09-02T09:57:51.002Z,18.36
2018-09-02T09:58:50.684Z,18.39
2018-09-02T09:59:50.757Z,18.4
2018-09-02T10:00:51.026Z,18.44
2018-09-02T10:01:50.646Z,18.46
2018-09-02T10:02:50.959Z,18.49
2018-09-02T10:03:50.688Z,18.52
2018-09-02T10:04:50.669Z,18.53
2018-09-02T10:05:50.787Z,18.57
2018-09-02T10:06:50.671Z,18.57
2018-09-02T10:07:50.678Z,18.59
2018-09-02T10:08:50.629Z,18.63
2018-09-02T10:09:50.868Z,18.63
2018-09-02T10:10:50.815Z,18.64
2018-09-02T10:11:50.953Z,18.68
2018-09-02T10:12:50.724Z,18.68
2018-09-02T10:13:50.639Z,18.7
2018-09-02T10:14:50.727Z,18.68
2018-09-02T10:15:50.676Z,18.71
2018-09-02T10:16:50.677Z,18.68
2018-09-02T10:17:50.633Z,18.68
2018-09-02T10:18:50.651Z,18.7
2018-09-02T10:19:50.640Z,18.63
2018-09-02T10:20:50.628Z,18.63
2018-09-02T10:21:50.643Z,18.64
2018-09-02T10:22:50.658Z,18.68
2018-09-02T10:23:50.865Z,18.66
2018-09-02T10:24:50.777Z,18.57
2018-09-02T10:25:50.710Z,18.52
2018-09-02T10:26:50.717Z,18.5
2018-09-02T10:27:51.003Z,18.52
2018-09-02T10:28:50.802Z,18.52
2018-09-02T10:29:50.728Z,18.46
2018-09-02T10:30:51.119Z,18.46
2018-09-02T10:31:54.813Z,18.49
2018-09-02T10:32:51.142Z,18.42
2018-09-02T10:33:50.731Z,18.39
2018-09-02T10:34:51.335Z,18.3
2018-09-02T10:35:50.637Z,18.27
2018-09-02T10:36:50.853Z,18.3
2018-09-02T10:37:50.760Z,18.36
2018-09-02T10:38:51.181Z,18.29
2018-09-02T10:39:51.076Z,18.32
2018-09-02T10:40:50.875Z,18.32
2018-09-02T10:41:50.890Z,18.33
2018-09-02T10:42:50.820Z,18.35
2018-09-02T10:43:50.931Z,18.36
2018-09-02T10:44:50.818Z,18.39
2018-09-02T10:45:51.881Z,18.36
2018-09-02T10:46:50.817Z,18.4
2018-09-02T10:47:50.836Z,18.44
2018-09-02T10:48:51.144Z,18.37
2018-09-02T10:49:50.644Z,18.35
2018-09-02T10:50:50.750Z,18.37
2018-09-02T10:51:50.844Z,18.43
2018-09-02T10:52:50.754Z,18.42
2018-09-02T10:53:50.877Z,18.39
2018-09-02T10:54:51.077Z,18.37
2018-09-02T10:55:50.673Z,18.44
2018-09-02T10:56:50.788Z,18.47
2018-09-02T10:57:50.699Z,18.49
2018-09-02T10:58:50.864Z,18.52
2018-09-02T10:59:50.941Z,18.52
2018-09-02T11:00:50.826Z,18.52
2018-09-02T11:01:51.126Z,18.49
2018-09-02T11:02:50.708Z,18.54
2018-09-02T11:03:50.755Z,18.54
2018-09-02T11:04:50.738Z,18.61
2018-09-02T11:05:50.756Z,18.68
2018-09-02T11:06:50.784Z,18.57
2018-09-02T11:07:51.465Z,18.63
2018-09-02T11:08:51.908Z,18.64
2018-09-02T11:09:50.623Z,18.61
2018-09-02T11:10:50.778Z,18.59
2018-09-02T11:11:50.895Z,18.7
2018-09-02T11:12:51.002Z,18.75
2018-09-02T11:13:51.496Z,18.72
2018-09-02T11:14:51.117Z,18.78
2018-09-02T11:15:50.715Z,18.82
2018-09-02T11:16:50.675Z,18.87
2018-09-02T11:17:51.078Z,18.87
2018-09-02T11:18:51.039Z,18.77
2018-09-02T11:19:51.866Z,18.82
2018-09-02T11:20:50.909Z,18.87
2018-09-02T11:21:50.965Z,18.89
2018-09-02T11:22:51.184Z,18.97
2018-09-02T11:23:50.645Z,19.01
2018-09-02T11:24:51.805Z,19.01
2018-09-02T11:25:50.737Z,19.02
2018-09-02T11:26:50.803Z,18.95
2018-09-02T11:27:50.801Z,18.94
2018-09-02T11:28:50.695Z,18.94
2018-09-02T11:29:50.627Z,18.94
2018-09-02T11:30:51.744Z,18.89
2018-09-02T11:31:50.698Z,18.84
2018-09-02T11:32:50.939Z,18.88
2018-09-02T11:33:50.971Z,18.87
2018-09-02T11:34:52.135Z,18.89
2018-09-02T11:35:50.789Z,18.88
2018-09-02T11:36:50.786Z,18.87
2018-09-02T11:37:50.779Z,18.78
2018-09-02T11:38:51.976Z,18.71
2018-09-02T11:39:52.852Z,18.72
2018-09-02T11:40:50.782Z,18.74
2018-09-02T11:41:52.863Z,18.75
2018-09-02T11:42:53.062Z,18.74
2018-09-02T11:43:50.599Z,18.78
2018-09-02T11:44:50.637Z,18.81
2018-09-02T11:45:50.828Z,18.84
2018-09-02T11:46:51.009Z,18.77
2018-09-02T11:47:50.946Z,18.81
2018-09-02T11:48:50.849Z,18.84
2018-09-02T11:49:51.463Z,18.85
2018-09-02T11:50:51.263Z,18.88
2018-09-02T11:51:50.615Z,18.91
2018-09-02T11:52:50.867Z,18.94
2018-09-02T11:53:50.776Z,18.95
2018-09-02T11:54:50.887Z,18.94
2018-09-02T11:55:50.791Z,18.95
2018-09-02T11:56:50.701Z,18.94
2018-09-02T11:57:51.247Z,18.89
2018-09-02T11:58:51.111Z,18.89
2018-09-02T11:59:50.926Z,18.89
2018-09-02T12:00:50.819Z,18.91
2018-09-02T12:01:50.955Z,18.94
2018-09-02T12:02:51.052Z,18.89
2018-09-02T12:03:51.087Z,18.91
2018-09-02T12:04:51.148Z,18.94
2018-09-02T12:05:50.958Z,18.94
2018-09-02T12:06:50.619Z,18.89
2018-09-02T12:07:51.174Z,18.95
2018-09-02T12:08:50.793Z,18.97
2018-09-02T12:09:50.787Z,18.99
2018-09-02T12:10:50.908Z,18.99
2018-09-02T12:11:50.982Z,19.01
2018-09-02T12:12:50.721Z,19.05
2018-09-02T12:13:50.847Z,19.06
2018-09-02T12:14:50.719Z,19.08
2018-09-02T12:15:50.820Z,19.16
2018-09-02T12:16:50.834Z,19.15
2018-09-02T12:17:52.067Z,19.15
2018-09-02T12:18:50.741Z,19.12
2018-09-02T12:19:50.743Z,19.12
2018-09-02T12:20:50.953Z,19.13
2018-09-02T12:21:50.865Z,19.12
2018-09-02T12:22:50.789Z,19.13
2018-09-02T12:23:51.083Z,19.16
2018-09-02T12:24:50.782Z,19.12
2018-09-02T12:25:50.899Z,19.15
2018-09-02T12:26:50.691Z,19.05
2018-09-02T12:27:50.690Z,19.06
2018-09-02T12:28:51.013Z,19.06
2018-09-02T12:29:50.722Z,19.01
2018-09-02T12:30:50.827Z,19.05
2018-09-02T12:31:50.732Z,19.09
2018-09-02T12:32:50.937Z,19.1
2018-09-02T12:33:50.844Z,19.08
2018-09-02T12:34:50.745Z,19.12
2018-09-02T12:35:50.755Z,19.09
2018-09-02T12:36:50.761Z,19.08
2018-09-02T12:37:50.685Z,19.09
2018-09-02T12:38:52.033Z,19.1
2018-09-02T12:39:50.618Z,19.06
2018-09-02T12:40:50.793Z,19.15
2018-09-02T12:41:50.791Z,19.13
2018-09-02T12:42:50.618Z,19.13
2018-09-02T12:43:56.556Z,19.17
2018-09-02T12:44:50.630Z,19.19
2018-09-02T12:45:51.025Z,19.19
2018-09-02T12:46:50.651Z,19.21
2018-09-02T12:47:51.497Z,19.21
2018-09-02T12:48:50.840Z,19.22
2018-09-02T12:49:50.614Z,19.16
2018-09-02T12:50:51.018Z,19.19
2018-09-02T12:51:50.793Z,19.22
2018-09-02T12:52:50.669Z,19.23
2018-09-02T12:53:50.668Z,19.23
2018-09-02T12:54:50.783Z,19.23
2018-09-02T12:55:51.096Z,19.26